Kezdőlap
METAR-TAF:

METAR-TAF

Repülőterek :

Jackson Municipal Airport

Jackson, Minnesota, Amerikai Egyesült Államok

földrajzi szélesség: 43-39N, földrajzi hosszúság: 094-59W, magasság: 441 m

Jelenlegi meteorológiai megfigyelések

A jelentés 5 órával és 1 perccel ezelõtt készült, 09:44 UTC
Délkeleti szél 16 kt széllökések: 25 kt
Hőmérséklet 12°C
Páratartalom 71%
Légköri nyomás 1006 hPa
Látótávolság: 8.0 km
Szórványos felhőzet 2900 lábon
Szórványos felhőzet 4300 lábon
Borult 9500 lábon
zivatar a közelben, enyhe esõ

METAR: KMJQ 160944Z AUTO 13016G25KT 5SM VCTS -RA SCT029 SCT043 OVC095 12/07 A2970 RMK AO2 LTG DSNT S THRU NW

Idő: 09:45 (14:45 UTC)


TAF: hiányzik

Meteorológiai megfigyelések és előrejelzések több, mint 4000 repülőtéren (METAR és TAF jelentéseket).

A térképen piros és sárga pontok jelzik az elérhető meteorológiai állomásokat.

Mozgassa az egeret a pont fölött, hogy megjelenjen az állomás neve.

Azután kattintson az időjárási megfigyelések és előrejelzések megtekintéséhez.

A térkép megváltoztatása: kattintson a fekete keresztel jelölt zöld gombra ráközelítéshez, a vonallal jelölt zöld gombra távolításhoz, vagy a zöld nyilakra a szomszédos térképek eléréséhez.


METAR-TAF: